createdAt,value
2023-01-12T00:00:01.677Z,8.73
2023-01-12T00:05:01.995Z,8.76
2023-01-12T00:10:02.177Z,8.75
2023-01-12T00:15:02.216Z,8.73
2023-01-12T00:20:02.123Z,8.73
2023-01-12T00:25:01.306Z,8.74
2023-01-12T00:30:01.769Z,8.72
2023-01-12T00:35:02.036Z,8.67
2023-01-12T00:40:03.026Z,8.7
2023-01-12T00:45:01.652Z,8.65
2023-01-12T00:50:02.002Z,8.65
2023-01-12T00:55:01.713Z,8.7
2023-01-12T01:00:02.058Z,8.68
2023-01-12T01:05:02.275Z,8.71
2023-01-12T01:10:01.455Z,8.7
2023-01-12T01:15:01.787Z,8.65
2023-01-12T01:20:01.790Z,8.67
2023-01-12T01:25:01.890Z,8.64
2023-01-12T01:30:01.600Z,8.68
2023-01-12T01:35:01.374Z,8.65
2023-01-12T01:40:02.049Z,8.58
2023-01-12T01:45:01.346Z,8.61
2023-01-12T01:50:01.933Z,8.6
2023-01-12T01:55:02.088Z,8.58
2023-01-12T02:00:01.614Z,8.58
2023-01-12T02:05:02.269Z,8.55
2023-01-12T02:10:01.580Z,8.53
2023-01-12T02:15:01.933Z,8.51
2023-01-12T02:20:01.454Z,8.6
2023-01-12T02:25:01.495Z,8.62
2023-01-12T02:30:02.208Z,8.63
2023-01-12T02:35:01.350Z,8.65
2023-01-12T02:40:01.653Z,8.66
2023-01-12T02:45:01.943Z,8.65
2023-01-12T02:50:02.297Z,8.67
2023-01-12T02:55:01.661Z,8.71
2023-01-12T03:00:02.046Z,8.76
2023-01-12T03:05:01.638Z,8.72
2023-01-12T03:10:02.086Z,8.68
2023-01-12T03:15:01.493Z,8.73
2023-01-12T03:20:01.989Z,8.76
2023-01-12T03:25:02.183Z,8.8
2023-01-12T03:30:01.570Z,8.89
2023-01-12T03:35:01.698Z,8.86
2023-01-12T03:40:01.579Z,8.8
2023-01-12T03:45:01.685Z,8.82
2023-01-12T03:50:02.134Z,8.88
2023-01-12T03:55:01.344Z,8.82
2023-01-12T04:00:02.065Z,8.76
2023-01-12T04:05:02.307Z,8.67
2023-01-12T04:10:01.376Z,8.64
2023-01-12T04:15:01.829Z,8.6
2023-01-12T04:20:02.160Z,8.57
2023-01-12T04:25:02.227Z,8.59
2023-01-12T04:30:01.507Z,8.58
2023-01-12T04:35:01.702Z,8.58
2023-01-12T04:40:01.305Z,8.55
2023-01-12T04:45:01.694Z,8.53
2023-01-12T04:50:02.413Z,8.52
2023-01-12T04:55:02.174Z,8.48
2023-01-12T05:00:02.156Z,8.51
2023-01-12T05:05:02.057Z,8.57
2023-01-12T05:10:01.420Z,8.6
2023-01-12T05:15:01.966Z,8.51
2023-01-12T05:20:02.179Z,8.56
2023-01-12T05:25:01.860Z,8.53
2023-01-12T05:30:02.084Z,8.48
2023-01-12T05:35:01.417Z,8.46
2023-01-12T05:40:02.064Z,8.45
2023-01-12T05:45:01.655Z,8.38
2023-01-12T05:50:01.887Z,8.35
2023-01-12T05:55:02.148Z,8.33
2023-01-12T06:00:02.234Z,8.23
2023-01-12T06:05:01.894Z,8.17
2023-01-12T06:10:01.541Z,8.31
2023-01-12T06:15:02.138Z,8.07
2023-01-12T06:20:02.345Z,8.07
2023-01-12T06:25:01.627Z,8.03
2023-01-12T06:30:02.136Z,7.99
2023-01-12T06:35:14.132Z,8.12
2023-01-12T06:40:01.294Z,8.14
2023-01-12T06:45:02.176Z,7.96
2023-01-12T06:50:01.378Z,8
2023-01-12T06:55:01.589Z,8.06
2023-01-12T07:00:01.716Z,8.12
2023-01-12T07:05:01.901Z,8.09
2023-01-12T07:10:02.205Z,8.13
2023-01-12T07:15:02.283Z,8.18
2023-01-12T07:20:02.145Z,8.15
2023-01-12T07:25:01.942Z,8.29
2023-01-12T07:30:01.656Z,8.15
2023-01-12T07:35:01.657Z,8.36
2023-01-12T07:40:01.738Z,8.44
2023-01-12T07:45:01.902Z,8.46
2023-01-12T07:50:02.129Z,8.5
2023-01-12T07:55:01.806Z,8.53
2023-01-12T08:00:01.640Z,8.57
2023-01-12T08:05:02.116Z,8.62
2023-01-12T08:10:01.893Z,8.56
2023-01-12T08:15:01.722Z,8.56
2023-01-12T08:20:01.810Z,8.61
2023-01-12T08:25:02.132Z,8.63
2023-01-12T08:30:02.072Z,8.65
2023-01-12T08:35:02.320Z,8.66
2023-01-12T08:40:01.647Z,8.77
2023-01-12T08:45:01.885Z,8.77
2023-01-12T08:50:02.129Z,8.8
2023-01-12T08:55:02.036Z,9
2023-01-12T09:00:02.063Z,8.91
2023-01-12T09:05:02.230Z,8.98
2023-01-12T09:10:01.341Z,9.18
2023-01-12T09:15:01.298Z,9.09
2023-01-12T09:20:01.809Z,9.19
2023-01-12T09:25:01.344Z,9.25
2023-01-12T09:30:01.908Z,9.26
2023-01-12T09:35:01.900Z,9.37
2023-01-12T09:40:02.220Z,9.29
2023-01-12T09:45:02.090Z,9.3
2023-01-12T09:50:09.295Z,9.33
2023-01-12T09:55:02.179Z,9.32
2023-01-12T10:00:02.269Z,9.41
2023-01-12T10:05:01.868Z,9.42
2023-01-12T10:10:01.952Z,9.47
2023-01-12T10:15:02.187Z,9.55
2023-01-12T10:20:02.139Z,9.59
2023-01-12T10:25:02.205Z,9.77
2023-01-12T10:30:01.811Z,9.69
2023-01-12T10:35:02.040Z,9.8
2023-01-12T10:40:01.828Z,9.86
2023-01-12T10:45:01.852Z,9.96
2023-01-12T10:50:01.304Z,10.04
2023-01-12T10:55:01.589Z,10.11
2023-01-12T11:00:01.878Z,10.19
2023-01-12T11:05:02.261Z,10.29
2023-01-12T11:10:01.350Z,10.35
2023-01-12T11:15:01.812Z,10.41
2023-01-12T11:20:01.936Z,10.44
2023-01-12T11:25:02.164Z,10.54
2023-01-12T11:30:02.113Z,10.63
2023-01-12T11:35:03.857Z,10.64
2023-01-12T11:40:01.613Z,10.69
2023-01-12T11:45:02.029Z,10.8
2023-01-12T11:50:01.838Z,10.8
2023-01-12T11:55:01.779Z,10.84
2023-01-12T12:00:02.176Z,10.81
2023-01-12T12:05:02.094Z,10.73
2023-01-12T12:10:02.224Z,10.77
2023-01-12T12:15:01.517Z,10.86
2023-01-12T12:20:02.228Z,10.89
2023-01-12T12:25:02.181Z,10.88
2023-01-12T12:30:02.270Z,10.86
2023-01-12T12:35:02.076Z,10.85
2023-01-12T12:40:02.063Z,10.89
2023-01-12T12:45:02.190Z,10.93
2023-01-12T12:50:01.846Z,10.74
2023-01-12T12:55:02.051Z,10.63
2023-01-12T13:00:01.676Z,10.41
2023-01-12T13:05:04.788Z,10.22
2023-01-12T13:10:01.527Z,10.11
2023-01-12T13:15:01.845Z,10.2
2023-01-12T13:20:04.415Z,9.98
2023-01-12T13:25:01.644Z,9.98
2023-01-12T13:30:01.896Z,10.07
2023-01-12T13:35:02.126Z,10.13
2023-01-12T13:40:02.148Z,10.31
2023-01-12T13:45:01.966Z,10.4
2023-01-12T13:50:01.964Z,10.42
2023-01-12T13:55:02.110Z,10.46
2023-01-12T14:00:02.151Z,10.49
2023-01-12T14:05:01.423Z,10.5
2023-01-12T14:10:01.642Z,10.53
2023-01-12T14:15:01.994Z,10.53
2023-01-12T14:20:02.141Z,10.58
2023-01-12T14:25:01.473Z,10.53
2023-01-12T14:30:01.666Z,10.49
2023-01-12T14:35:01.906Z,10.52
2023-01-12T14:40:01.817Z,10.55
2023-01-12T14:45:01.920Z,10.65
2023-01-12T14:50:01.951Z,10.67
2023-01-12T14:55:02.198Z,10.71
2023-01-12T15:00:02.229Z,10.79
2023-01-12T15:05:02.131Z,10.85
2023-01-12T15:10:02.283Z,10.82
2023-01-12T15:15:01.421Z,10.8
2023-01-12T15:20:02.019Z,10.73
2023-01-12T15:25:02.203Z,10.75
2023-01-12T15:30:02.106Z,10.71
2023-01-12T15:35:01.362Z,10.73
2023-01-12T15:40:01.614Z,10.71
2023-01-12T15:45:01.563Z,10.66
2023-01-12T15:50:01.906Z,10.66
2023-01-12T15:55:01.386Z,10.66
2023-01-12T16:00:01.831Z,10.69
2023-01-12T16:05:01.968Z,10.69
2023-01-12T16:10:02.423Z,10.65
2023-01-12T16:15:01.303Z,10.58
2023-01-12T16:20:01.736Z,10.48
2023-01-12T16:25:01.851Z,10.4
2023-01-12T16:30:01.906Z,10.4
2023-01-12T16:35:02.080Z,10.44
2023-01-12T16:40:02.157Z,10.43
2023-01-12T16:45:01.929Z,10.4
2023-01-12T16:50:02.179Z,10.38
2023-01-12T16:55:02.174Z,10.41
2023-01-12T17:00:02.274Z,10.35
2023-01-12T17:05:01.414Z,10.38
2023-01-12T17:10:01.674Z,10.46
2023-01-12T17:15:02.132Z,10.41
2023-01-12T17:20:02.194Z,10.36
2023-01-12T17:25:02.058Z,10.31
2023-01-12T17:30:02.159Z,10.27
2023-01-12T17:35:02.147Z,10.35
2023-01-12T17:40:02.028Z,10.33
2023-01-12T17:45:02.088Z,10.4
2023-01-12T17:50:02.188Z,10.37
2023-01-12T17:55:01.344Z,10.37
2023-01-12T18:00:01.643Z,10.41
2023-01-12T18:05:01.679Z,10.41
2023-01-12T18:10:01.890Z,10.39
2023-01-12T18:15:01.726Z,10.38
2023-01-12T18:20:01.844Z,10.38
2023-01-12T18:25:01.381Z,10.46
2023-01-12T18:30:01.486Z,10.48
2023-01-12T18:35:01.762Z,10.53
2023-01-12T18:40:02.076Z,10.59
2023-01-12T18:45:02.184Z,10.64
2023-01-12T18:50:02.241Z,10.66
2023-01-12T18:55:01.470Z,10.6
2023-01-12T19:00:01.715Z,10.57
2023-01-12T19:05:01.799Z,10.51
2023-01-12T19:10:02.169Z,10.49
2023-01-12T19:15:02.031Z,10.43
2023-01-12T19:20:02.195Z,10.42
2023-01-12T19:25:02.130Z,10.35
2023-01-12T19:30:01.962Z,10.43
2023-01-12T19:35:10.861Z,10.51
2023-01-12T19:40:02.286Z,10.59
2023-01-12T19:45:01.519Z,10.69
2023-01-12T19:50:02.053Z,10.7
2023-01-12T19:55:02.099Z,10.73
2023-01-12T20:00:02.200Z,10.82
2023-01-12T20:05:01.569Z,10.81
2023-01-12T20:10:02.078Z,10.78
2023-01-12T20:15:02.134Z,10.7
2023-01-12T20:20:02.159Z,10.7
2023-01-12T20:25:02.099Z,10.7
2023-01-12T20:30:02.280Z,10.63
2023-01-12T20:35:01.299Z,10.58
2023-01-12T20:40:01.561Z,10.63
2023-01-12T20:45:01.807Z,10.7
2023-01-12T20:50:01.920Z,10.64
2023-01-12T20:55:02.111Z,10.65
2023-01-12T21:00:02.204Z,10.65
2023-01-12T21:05:02.202Z,10.58
2023-01-12T21:10:02.354Z,10.62
2023-01-12T21:15:01.519Z,10.67
2023-01-12T21:20:02.137Z,10.67
2023-01-12T21:25:01.433Z,10.68
2023-01-12T21:30:01.822Z,10.7
2023-01-12T21:35:01.855Z,10.68
2023-01-12T21:40:01.911Z,10.65
2023-01-12T21:45:02.039Z,10.63
2023-01-12T21:50:02.188Z,10.58
2023-01-12T21:55:02.244Z,10.58
2023-01-12T22:00:02.112Z,10.59
2023-01-12T22:05:01.666Z,10.58
2023-01-12T22:10:01.343Z,10.52
2023-01-12T22:15:01.583Z,10.53
2023-01-12T22:20:01.815Z,10.46
2023-01-12T22:25:01.789Z,10.44
2023-01-12T22:30:02.073Z,10.4
2023-01-12T22:35:01.308Z,10.39
2023-01-12T22:40:01.557Z,10.41
2023-01-12T22:45:01.807Z,10.46
2023-01-12T22:50:01.753Z,10.4
2023-01-12T22:55:01.990Z,10.4
2023-01-12T23:00:02.165Z,10.44
2023-01-12T23:05:01.546Z,10.42
2023-01-12T23:10:01.967Z,10.48
2023-01-12T23:15:01.932Z,10.57
2023-01-12T23:20:02.091Z,10.66
2023-01-12T23:25:02.033Z,10.7
2023-01-12T23:30:01.433Z,10.71
2023-01-12T23:35:01.761Z,10.68
2023-01-12T23:40:01.724Z,10.73
2023-01-12T23:45:01.706Z,10.71
2023-01-12T23:50:02.102Z,10.74
2023-01-12T23:55:02.061Z,10.72
